.
WxDataArchive / Data Records for 2011-09-10
2011-09-09 September 2011 2011-09-11

Data Records for Saturday, 10 September 2011

Time	Temp	Chill	HIndex	Humid	Dewpt	 Wind 	HiWind	WindDir	Rain 	Barom 
-----	----	-----	------	-----	-----	------	------	-------	-----	----- 
00:00	61.3	61.3	61.3	93	59.3	0	0	---	0.00	29.966 
00:05	61.5	61.5	61.5	93	59.5	0	0	---	0.00	29.966 
00:10	61.5	61.5	61.5	93	59.5	0	0	---	0.00	29.966 
00:15	61.5	61.5	61.5	93	59.5	0	0	---	0.00	29.963 
00:20	61.5	61.5	61.5	93	59.5	0	0	---	0.00	29.963 
00:25	61.5	61.5	61.5	93	59.5	0	0	---	0.00	29.963 
00:30	61.6	61.6	61.6	93	59.6	0	0	---	0.00	29.963 
00:35	61.6	61.6	61.6	93	59.6	0	0	---	0.00	29.963 
00:40	61.8	61.8	61.8	93	59.8	0	0	---	0.00	29.963 
00:45	61.8	61.8	61.8	93	59.8	0	0	---	0.00	29.964 
00:50	61.8	61.8	61.8	93	59.8	0	0	---	0.00	29.964 
00:55	62.0	62.0	62.0	93	59.9	0	0	---	0.00	29.964 
01:00	62.0	62.0	62.0	93	59.9	0	0	---	0.00	29.964 
01:05	62.0	62.0	62.0	93	59.9	0	0	---	0.00	29.964 
01:10	62.0	62.0	62.0	93	59.9	0	0	---	0.00	29.964 
01:15	62.0	62.0	62.0	93	59.9	0	0	---	0.00	29.963 
01:20	62.0	62.0	62.0	92	59.6	0	0	---	0.00	29.963 
01:25	62.0	62.0	62.0	92	59.6	0	0	---	0.00	29.963 
01:30	62.0	62.0	62.0	92	59.6	0	0	---	0.00	29.964 
01:35	61.8	61.8	61.8	92	59.4	0	0	---	0.00	29.964 
01:40	62.0	62.0	62.0	92	59.6	0	0	---	0.00	29.964 
01:45	61.8	61.8	61.8	92	59.4	0	0	---	0.00	29.968 
01:50	61.8	61.8	61.8	92	59.4	0	0	---	0.00	29.968 
01:55	61.8	61.8	61.8	92	59.4	0	0	---	0.00	29.968 
02:00	61.8	61.8	61.8	92	59.4	0	0	---	0.00	29.970 
02:05	61.8	61.8	61.8	92	59.4	0	0	---	0.00	29.970 
02:10	61.8	61.8	61.8	92	59.4	0	0	---	0.00	29.970 
02:15	61.8	61.8	61.8	92	59.4	0	0	---	0.00	29.960 
02:20	61.6	61.6	61.6	92	59.2	0	0	---	0.00	29.960 
02:25	61.6	61.6	61.6	92	59.2	0	0	---	0.00	29.960 
02:30	61.6	61.6	61.6	92	59.2	0	0	---	0.00	29.960 
02:35	61.6	61.6	61.6	92	59.2	0	0	---	0.00	29.960 
02:40	61.5	61.5	61.5	92	59.2	0	0	---	0.00	29.960 
02:45	61.5	61.5	61.5	92	59.2	0	0	---	0.00	29.957 
02:50	61.3	61.3	61.3	92	59.0	0	0	---	0.00	29.957 
02:55	61.2	61.2	61.2	93	59.2	0	0	---	0.00	29.957 
03:00	61.2	61.2	61.2	93	59.2	0	0	---	0.00	29.958 
03:05	61.0	61.0	61.0	93	59.0	0	0	---	0.00	29.958 
03:10	60.9	60.9	60.9	92	58.6	0	0	---	0.00	29.958 
03:15	60.7	60.7	60.7	93	58.7	0	0	---	0.00	29.959 
03:20	60.5	60.5	60.5	93	58.5	0	0	---	0.00	29.959 
03:25	60.4	60.4	60.4	93	58.4	0	0	---	0.00	29.959 
03:30	60.2	60.2	60.2	93	58.2	0	0	---	0.00	29.961 
03:35	60.1	60.1	60.1	93	58.1	0	0	---	0.00	29.961 
03:40	59.9	59.9	59.9	93	57.9	0	0	---	0.00	29.961 
03:45	59.9	59.9	59.9	93	57.9	0	0	---	0.00	29.961 
03:50	59.8	59.8	59.8	93	57.8	0	0	---	0.00	29.961 
03:55	59.6	59.6	59.6	93	57.6	0	0	---	0.00	29.961 
04:00	59.6	59.6	59.6	93	57.6	0	0	---	0.00	29.962 
04:05	59.5	59.5	59.5	93	57.5	0	0	---	0.00	29.962 
04:10	59.3	59.3	59.3	93	57.3	0	0	---	0.00	29.962 
04:15	59.3	59.3	59.3	93	57.3	0	0	---	0.00	29.967 
04:20	59.2	59.2	59.2	94	57.5	0	0	---	0.00	29.967 
04:25	59.2	59.2	59.2	94	57.5	0	0	---	0.00	29.967 
04:30	59.0	59.0	59.0	94	57.3	0	0	---	0.00	29.967 
04:35	59.0	59.0	59.0	94	57.3	0	0	---	0.00	29.967 
04:40	58.9	58.9	58.9	94	57.2	0	0	---	0.00	29.967 
04:45	58.9	58.9	58.9	94	57.2	0	0	---	0.00	29.971 
04:50	58.9	58.9	58.9	94	57.2	0	0	---	0.00	29.971 
04:55	58.9	58.9	58.9	94	57.2	0	0	---	0.00	29.971 
05:00	58.7	58.7	58.7	94	57.0	0	0	---	0.00	29.965 
05:05	58.6	58.6	58.6	94	56.9	0	0	---	0.00	29.965 
05:10	58.6	58.6	58.6	94	56.9	0	0	---	0.00	29.965 
05:15	58.4	58.4	58.4	94	56.7	0	0	---	0.00	29.969 
05:20	58.4	58.4	58.4	94	56.7	0	0	---	0.00	29.969 
05:25	58.3	58.3	58.3	94	56.6	0	0	---	0.00	29.969 
05:30	58.1	58.1	58.1	94	56.4	0	0	---	0.00	29.973 
05:35	58.1	58.1	58.1	94	56.4	0	0	---	0.00	29.973 
05:40	58.0	58.0	58.0	94	56.3	0	0	---	0.00	29.973 
05:45	58.0	58.0	58.0	94	56.3	0	0	---	0.00	29.978 
05:50	57.8	57.8	57.8	94	56.1	0	0	---	0.00	29.978 
05:55	57.6	57.6	57.6	94	55.9	0	0	---	0.00	29.978 
06:00	57.5	57.5	57.5	94	55.8	0	0	---	0.00	29.980 
06:05	57.5	57.5	57.5	94	55.8	0	0	---	0.00	29.980 
06:10	57.3	57.3	57.3	94	55.6	0	0	---	0.00	29.980 
06:15	57.3	57.3	57.3	95	55.9	0	0	---	0.00	29.981 
06:20	57.2	57.2	57.2	95	55.8	0	0	---	0.00	29.981 
06:25	57.2	57.2	57.2	95	55.8	0	0	---	0.00	29.981 
06:30	57.2	57.2	57.2	95	55.8	0	0	---	0.00	29.977 
06:35	57.2	57.2	57.2	95	55.8	0	0	---	0.00	29.977 
06:40	57.0	57.0	57.0	95	55.6	0	0	---	0.00	29.977 
06:45	57.0	57.0	57.0	95	55.6	0	0	---	0.00	29.979 
06:50	56.9	56.9	56.9	95	55.5	0	0	---	0.00	29.979 
06:55	56.9	56.9	56.9	95	55.5	0	0	---	0.00	29.979 
07:00	57.0	57.0	57.0	95	55.6	0	0	---	0.00	29.985 
07:05	56.9	56.9	56.9	95	55.5	0	0	---	0.00	29.985 
07:10	56.9	56.9	56.9	95	55.5	0	0	---	0.00	29.985 
07:15	56.9	56.9	56.9	95	55.5	0	0	---	0.00	29.990 
07:20	56.9	56.9	56.9	95	55.5	0	0	---	0.00	29.990 
07:25	56.9	56.9	56.9	95	55.5	0	0	---	0.00	29.990 
07:30	56.9	56.9	56.9	95	55.5	0	0	---	0.00	29.999 
07:35	56.9	56.9	56.9	95	55.5	0	0	---	0.00	29.999 
07:40	56.9	56.9	56.9	95	55.5	0	0	---	0.00	29.999 
07:45	56.9	56.9	56.9	95	55.5	0	0	---	0.00	29.999 
07:50	57.0	57.0	57.0	95	55.6	0	0	---	0.00	29.999 
07:55	57.0	57.0	57.0	95	55.6	0	0	---	0.00	29.999 
08:00	57.2	57.2	57.2	95	55.8	0	0	---	0.00	29.997 
08:05	57.5	57.5	57.5	96	56.4	0	0	---	0.00	29.997 
08:10	57.6	57.6	57.6	96	56.5	0	0	---	0.00	29.997 
08:15	58.0	58.0	58.0	96	56.9	0	0	---	0.00	30.002 
08:20	58.3	58.3	58.3	96	57.2	0	0	---	0.00	30.002 
08:25	58.7	58.7	58.7	96	57.6	0	0	---	0.00	30.002 
08:30	59.3	59.3	59.3	96	58.2	0	0	---	0.00	30.006 
08:35	59.8	59.8	59.8	96	58.7	0	0	---	0.00	30.006 
08:40	60.2	60.2	60.2	96	59.1	0	0	---	0.00	30.006 
08:45	60.9	60.9	60.9	96	59.7	0	0	---	0.00	30.011 
08:50	61.3	61.3	61.3	96	60.1	0	0	---	0.00	30.011 
08:55	61.6	61.6	61.6	96	60.4	0	1	112	0.00	30.011 
09:00	61.6	61.6	61.6	96	60.4	0	1	---	0.00	30.014 
09:05	62.0	62.0	62.0	96	60.8	0	0	---	0.00	30.014 
09:10	62.1	62.1	62.1	96	60.9	0	0	---	0.00	30.014 
09:15	62.4	62.4	62.4	96	61.2	0	0	---	0.00	30.016 
09:20	62.7	62.7	62.7	96	61.5	0	0	---	0.00	30.016 
09:25	63.1	63.1	63.1	96	61.9	0	1	112	0.00	30.016 
09:30	63.5	63.5	63.5	96	62.3	0	0	---	0.00	30.015 
09:35	63.9	63.9	63.9	95	62.4	0	0	---	0.00	30.015 
09:40	64.0	64.0	64.0	94	62.2	0	1	112	0.00	30.015 
09:45	64.3	64.3	64.3	93	62.2	0	1	112	0.00	30.019 
09:50	65.0	65.0	65.0	92	62.6	0	0	---	0.00	30.019 
09:55	65.5	65.5	65.5	90	62.5	0	0	---	0.00	30.019 
10:00	66.0	66.0	66.0	89	62.7	0	1	112	0.00	30.024 
10:05	66.6	66.6	66.6	86	62.3	0	1	112	0.00	30.024 
10:10	67.3	67.3	67.3	84	62.3	0	1	112	0.00	30.024 
10:15	68.1	68.1	68.1	82	62.4	0	2	112	0.00	30.022 
10:20	68.3	68.3	68.3	79	61.5	0	1	112	0.00	30.022 
10:25	68.4	68.4	68.4	79	61.6	0	0	---	0.00	30.022 
10:30	68.4	68.4	68.4	78	61.3	0	0	---	0.00	30.026 
10:35	68.4	68.4	68.4	79	61.6	0	1	112	0.00	30.026 
10:40	68.4	68.4	68.4	79	61.6	0	0	---	0.00	30.026 
10:45	68.6	68.6	68.6	79	61.8	0	1	112	0.00	30.026 
10:50	68.8	68.8	68.8	78	61.7	0	0	---	0.00	30.026 
10:55	68.8	68.8	68.8	78	61.7	0	0	---	0.00	30.026 
11:00	68.9	68.9	68.9	77	61.4	0	1	112	0.00	30.028 
11:05	69.1	69.1	69.1	77	61.6	0	0	---	0.00	30.028 
11:10	69.3	69.3	69.3	77	61.8	0	0	---	0.00	30.028 
11:15	69.4	69.4	69.4	77	61.9	0	0	---	0.00	30.028 
11:20	69.6	69.6	69.6	76	61.7	0	1	112	0.00	30.028 
11:25	69.9	69.9	69.9	76	62.0	0	1	112	0.00	30.028 
11:30	70.3	70.3	70.3	75	62.0	0	0	---	0.00	30.027 
11:35	70.4	70.4	70.4	74	61.7	0	0	---	0.00	30.027 
11:40	70.6	70.6	70.6	73	61.5	0	3	112	0.00	30.027 
11:45	70.4	70.4	70.4	73	61.3	0	2	112	0.00	30.027 
11:50	70.6	70.6	70.6	73	61.5	0	0	---	0.00	30.027 
11:55	70.9	70.9	70.9	73	61.8	0	1	112	0.00	30.027 
12:00	70.9	70.9	70.9	73	61.8	0	1	112	0.00	30.023 
12:05	71.3	71.3	71.3	72	61.8	0	1	112	0.00	30.023 
12:10	72.0	72.0	72.0	70	61.7	0	1	112	0.00	30.023 
12:15	73.0	73.0	73.0	68	61.8	0	2	112	0.00	30.018 
12:20	73.9	73.9	73.9	68	62.7	1	3	112	0.00	30.018 
12:25	74.0	74.0	74.0	65	61.5	1	3	112	0.00	30.018 
12:30	73.9	73.9	73.9	65	61.4	0	2	112	0.00	30.015 
12:35	73.3	73.3	73.3	65	60.8	0	2	112	0.00	30.015 
12:40	73.0	73.0	73.0	65	60.5	0	3	112	0.00	30.015 
12:45	73.0	73.0	73.0	65	60.5	0	2	112	0.00	30.010 
12:50	73.2	73.2	73.2	67	61.6	0	2	112	0.00	30.010 
12:55	73.7	73.7	73.7	64	60.7	1	3	112	0.00	30.010 
13:00	74.0	74.0	74.0	62	60.1	1	3	225	0.00	30.005 
13:05	74.4	74.4	74.4	63	61.0	0	2	225	0.00	30.005 
13:10	74.0	74.0	74.0	62	60.1	1	2	248	0.00	30.005 
13:15	73.9	73.9	73.9	62	60.0	0	2	248	0.00	30.006 
13:20	73.9	73.9	73.9	62	60.0	1	2	248	0.00	30.006 
13:25	74.0	74.0	74.0	63	60.6	0	2	248	0.00	30.006 
13:30	74.4	74.4	74.4	62	60.5	1	3	248	0.00	30.003 
13:35	74.9	74.9	74.9	60	60.1	1	3	45	0.00	30.003 
13:40	75.1	75.1	77.4	60	60.2	1	3	45	0.00	30.003 
13:45	74.9	74.9	74.9	62	61.0	2	4	45	0.00	30.001 
13:50	74.9	74.9	74.9	62	61.0	1	3	45	0.00	30.001 
13:55	75.1	75.1	77.4	61	60.7	1	4	90	0.00	30.001 
14:00	75.4	75.4	77.6	59	60.1	1	3	90	0.00	30.004 
14:05	75.4	75.4	77.6	59	60.1	0	2	90	0.00	30.004 
14:10	75.8	75.8	77.9	60	60.9	1	3	90	0.00	30.004 
14:15	75.8	75.8	77.9	58	59.9	1	3	90	0.00	30.003 
14:20	75.4	75.4	77.5	62	61.5	1	4	90	0.00	30.003 
14:25	75.3	75.3	77.6	59	60.0	1	3	112	0.00	30.003 
14:30	75.4	75.4	77.6	59	60.1	0	1	112	0.00	29.999 
14:35	75.4	75.4	77.7	58	59.6	0	1	112	0.00	29.999 
14:40	75.3	75.3	77.5	60	60.4	0	1	112	0.00	29.999 
14:45	74.7	74.7	74.7	60	59.9	0	2	112	0.00	29.995 
14:50	74.6	74.6	74.6	62	60.7	0	0	---	0.00	29.995 
14:55	74.6	74.6	74.6	60	59.8	0	2	112	0.00	29.995 
15:00	74.7	74.7	74.7	60	59.9	0	2	112	0.00	29.989 
15:05	74.6	74.6	74.6	60	59.8	0	2	112	0.00	29.989 
15:10	74.6	74.6	74.6	62	60.7	1	2	112	0.00	29.989 
15:15	74.4	74.4	74.4	63	61.0	0	2	112	0.00	29.990 
15:20	74.4	74.4	74.4	62	60.5	0	2	112	0.00	29.990 
15:25	74.6	74.6	74.6	61	60.2	0	2	112	0.00	29.990 
15:30	74.7	74.7	74.7	61	60.3	0	1	112	0.00	29.989 
15:35	74.6	74.6	74.6	62	60.7	0	0	---	0.00	29.989 
15:40	74.4	74.4	74.4	62	60.5	0	0	---	0.00	29.989 
15:45	74.4	74.4	74.4	63	61.0	0	1	112	0.00	29.985 
15:50	74.4	74.4	74.4	63	61.0	1	2	112	0.00	29.985 
15:55	74.2	74.2	74.2	63	60.8	0	0	---	0.00	29.985 
16:00	73.9	73.9	73.9	64	60.9	0	2	112	0.00	29.984 
16:05	73.7	73.7	73.7	65	61.2	0	1	112	0.00	29.984 
16:10	73.3	73.3	73.3	65	60.8	0	1	112	0.00	29.984 
16:15	73.2	73.2	73.2	65	60.7	0	2	112	0.00	29.984 
16:20	73.2	73.2	73.2	65	60.7	0	1	112	0.00	29.984 
16:25	73.3	73.3	73.3	67	61.7	0	1	112	0.00	29.984 
16:30	73.2	73.2	73.2	66	61.1	0	1	112	0.00	29.983 
16:35	73.0	73.0	73.0	67	61.4	0	1	112	0.00	29.983 
16:40	72.8	72.8	72.8	68	61.6	0	1	112	0.00	29.983 
16:45	72.8	72.8	72.8	68	61.6	0	2	112	0.00	29.986 
16:50	72.8	72.8	72.8	68	61.6	0	0	---	0.00	29.986 
16:55	72.8	72.8	72.8	68	61.6	0	1	112	0.00	29.986 
17:00	72.8	72.8	72.8	69	62.0	0	1	112	0.00	29.988 
17:05	72.8	72.8	72.8	68	61.6	0	1	112	0.00	29.988 
17:10	72.8	72.8	72.8	67	61.2	0	1	112	0.00	29.988 
17:15	72.8	72.8	72.8	67	61.2	0	0	---	0.00	29.988 
17:20	73.0	73.0	73.0	68	61.8	0	1	112	0.00	29.988 
17:25	73.0	73.0	73.0	67	61.4	0	1	112	0.00	29.988 
17:30	73.0	73.0	73.0	66	61.0	0	1	112	0.00	29.987 
17:35	73.0	73.0	73.0	67	61.4	0	0	---	0.00	29.987 
17:40	72.8	72.8	72.8	67	61.2	0	0	---	0.00	29.987 
17:45	72.7	72.7	72.7	66	60.7	0	1	112	0.00	29.989 
17:50	72.7	72.7	72.7	68	61.5	0	1	112	0.00	29.989 
17:55	72.5	72.5	72.5	68	61.3	0	0	---	0.00	29.989 
18:00	72.5	72.5	72.5	69	61.7	0	0	---	0.00	29.991 
18:05	72.5	72.5	72.5	69	61.7	0	1	112	0.00	29.991 
18:10	72.0	72.0	72.0	69	61.3	0	3	112	0.00	29.991 
18:15	71.3	71.3	71.3	70	61.0	1	3	112	0.00	29.995 
18:20	70.4	70.4	70.4	72	60.9	0	2	112	0.00	29.995 
18:25	69.9	69.9	69.9	73	60.8	0	1	338	0.00	29.995 
18:30	69.4	69.4	69.4	74	60.7	0	2	338	0.00	30.002 
18:35	68.9	68.9	68.9	75	60.6	0	1	338	0.00	30.002 
18:40	68.6	68.6	68.6	76	60.7	0	0	---	0.00	30.002 
18:45	68.4	68.4	68.4	76	60.5	0	1	338	0.00	30.002 
18:50	68.3	68.3	68.3	76	60.4	0	1	338	0.00	30.002 
18:55	68.1	68.1	68.1	76	60.2	0	0	---	0.00	30.002 
19:00	68.1	68.1	68.1	77	60.6	0	1	338	0.00	30.006 
19:05	67.9	67.9	67.9	78	60.8	0	0	---	0.00	30.006 
19:10	67.8	67.8	67.8	79	61.0	0	0	---	0.00	30.006 
19:15	67.8	67.8	67.8	80	61.4	0	0	---	0.00	30.004 
19:20	67.6	67.6	67.6	80	61.2	0	0	---	0.00	30.004 
19:25	67.6	67.6	67.6	81	61.6	0	0	---	0.00	30.004 
19:30	67.6	67.6	67.6	82	61.9	0	1	338	0.00	30.009 
19:35	67.4	67.4	67.4	82	61.7	0	0	---	0.00	30.009 
19:40	67.3	67.3	67.3	82	61.6	0	1	338	0.00	30.009 
19:45	67.3	67.3	67.3	82	61.6	0	1	338	0.00	30.011 
19:50	67.1	67.1	67.1	82	61.4	0	0	---	0.00	30.011 
19:55	67.1	67.1	67.1	82	61.4	0	0	---	0.00	30.011 
20:00	67.1	67.1	67.1	82	61.4	0	0	---	0.00	30.005 
20:05	67.1	67.1	67.1	83	61.8	0	0	---	0.00	30.005 
20:10	67.1	67.1	67.1	83	61.8	0	1	338	0.00	30.005 
20:15	67.1	67.1	67.1	83	61.8	0	1	338	0.00	29.996 
20:20	66.9	66.9	66.9	83	61.6	0	0	---	0.00	29.996 
20:25	66.9	66.9	66.9	84	61.9	0	0	---	0.00	29.996 
20:30	66.8	66.8	66.8	84	61.8	0	0	---	0.00	29.999 
20:35	66.8	66.8	66.8	85	62.1	0	0	---	0.00	29.999 
20:40	66.6	66.6	66.6	85	61.9	0	1	338	0.00	29.999 
20:45	66.6	66.6	66.6	86	62.3	0	1	338	0.00	30.006 
20:50	66.4	66.4	66.4	86	62.1	0	1	338	0.00	30.006 
20:55	66.4	66.4	66.4	86	62.1	0	0	---	0.00	30.006 
21:00	66.4	66.4	66.4	86	62.1	0	1	338	0.00	30.009 
21:05	66.4	66.4	66.4	86	62.1	0	1	338	0.00	30.009 
21:10	66.4	66.4	66.4	87	62.4	0	1	338	0.00	30.009 
21:15	66.3	66.3	66.3	87	62.3	0	2	338	0.00	30.007 
21:20	66.3	66.3	66.3	87	62.3	0	1	338	0.00	30.007 
21:25	66.3	66.3	66.3	87	62.3	0	0	---	0.00	30.007 
21:30	66.3	66.3	66.3	87	62.3	0	0	---	0.00	30.008 
21:35	66.1	66.1	66.1	87	62.1	0	0	---	0.00	30.008 
21:40	66.1	66.1	66.1	87	62.1	0	0	---	0.00	30.008 
21:45	66.0	66.0	66.0	87	62.0	0	0	---	0.00	30.009 
21:50	66.0	66.0	66.0	88	62.3	0	0	---	0.00	30.009 
21:55	66.0	66.0	66.0	88	62.3	0	0	---	0.00	30.009 
22:00	66.0	66.0	66.0	88	62.3	0	0	---	0.00	30.011 
22:05	66.0	66.0	66.0	88	62.3	0	0	---	0.00	30.011 
22:10	65.8	65.8	65.8	88	62.1	0	0	---	0.00	30.011 
22:15	65.8	65.8	65.8	88	62.1	0	0	---	0.00	30.012 
22:20	65.8	65.8	65.8	88	62.1	0	0	---	0.00	30.012 
22:25	65.8	65.8	65.8	88	62.1	0	0	---	0.00	30.012 
22:30	65.6	65.6	65.6	88	61.9	0	0	---	0.00	30.009 
22:35	65.6	65.6	65.6	88	61.9	0	0	---	0.00	30.009 
22:40	65.5	65.5	65.5	88	61.8	0	0	---	0.00	30.009 
22:45	65.5	65.5	65.5	88	61.8	0	0	---	0.00	30.010 
22:50	65.3	65.3	65.3	89	62.0	0	0	---	0.00	30.010 
22:55	65.3	65.3	65.3	89	62.0	0	0	---	0.00	30.010 
23:00	65.2	65.2	65.2	89	61.9	0	0	---	0.00	30.016 
23:05	65.0	65.0	65.0	89	61.7	0	0	---	0.00	30.016 
23:10	64.8	64.8	64.8	89	61.5	0	0	---	0.00	30.016 
23:15	64.8	64.8	64.8	90	61.8	0	0	---	0.00	30.007 
23:20	64.7	64.7	64.7	90	61.7	0	0	---	0.00	30.007 
23:25	64.7	64.7	64.7	90	61.7	0	0	---	0.00	30.007 
23:30	64.5	64.5	64.5	90	61.5	0	0	---	0.00	30.006 
23:35	64.5	64.5	64.5	90	61.5	0	0	---	0.00	30.006 
23:40	64.5	64.5	64.5	91	61.8	0	0	---	0.00	30.006 
23:45	64.3	64.3	64.3	91	61.6	0	0	---	0.00	30.008 
23:50	64.3	64.3	64.3	91	61.6	0	0	---	0.00	30.008 
23:55	64.2	64.2	64.2	91	61.5	0	0	---	0.00	30.008 

CoCoRaHS
IN-AL-39
A2 Web Hosting
Creative Commons License
GoDaddy
search engine by freefind advanced

loaded 2018-11-16 10:47:12 • last modified 2010-11-18 10:43:29
Privacy PolicyDisclaimer
• wx.awcolley.com is powered by PmWiki v.2002016 •
• all content (unless otherwise noted) © 2018 A W Colley